Terminal Aerodrome Forecast
Issued by NWS Tampa Bay Area, FL

Home | Current Version | Previous Version | Text Only | Print | Product List | Glossary On
Versions: 1 2 3 4 5 6 7 8 9 10 11 12 13 14
789
FTUS42 KTBW 230528
TAFSRQ
TAF
KSRQ 230528Z 2306/2406 VRB03KT P6SM SCT005 BKN020
     FM230800 VRB04KT 6SM BR SCT005 SCT020
     FM231400 06009KT P6SM SCT020 SCT100
     FM232000 08012G17KT P6SM VCSH SCT025 SCT050
     FM240200 07010KT P6SM SCT020=

USA.gov is the U.S. government's official web portal to all federal, state and local government web resources and services.